createdAt,value
2018-09-30T00:06:27.100Z,101951.09
2018-09-30T00:11:59.034Z,101947.91
2018-09-30T01:16:40.374Z,101867.79
2018-09-30T01:33:12.865Z,101837.52
2018-09-30T02:11:01.644Z,101788.39
2018-09-30T07:05:58.668Z,101661.91
2018-09-30T07:27:09.995Z,101657.34
2018-09-30T07:32:25.394Z,101666.93
2018-09-30T07:37:39.655Z,101663.17
2018-09-30T07:42:52.404Z,101658.42
2018-09-30T07:47:57.081Z,101649.69
2018-09-30T07:52:59.048Z,101643.78
2018-09-30T07:58:00.024Z,101636.22
2018-09-30T08:03:10.530Z,101636.41
2018-09-30T08:08:05.898Z,101623.25
2018-09-30T08:13:04.530Z,101629.73
2018-09-30T08:18:10.888Z,101627.80
2018-09-30T08:23:03.238Z,101626.86
2018-09-30T08:27:57.532Z,101627.23
2018-09-30T08:32:51.630Z,101622.03
2018-09-30T08:37:46.373Z,101630.99
2018-09-30T08:42:43.080Z,101624.86
2018-09-30T08:47:39.339Z,101618.44
2018-09-30T08:52:33.379Z,101620.43
2018-09-30T08:57:30.063Z,101611.47
2018-09-30T09:02:24.495Z,101605.42
2018-09-30T09:07:16.213Z,101608.77
2018-09-30T09:12:11.433Z,101607.73
2018-09-30T09:17:04.984Z,101606.24
2018-09-30T09:21:59.707Z,101601.23
2018-09-30T09:26:51.366Z,101597.64
2018-09-30T09:31:43.522Z,101598.79
2018-09-30T09:36:36.298Z,101583.27
2018-09-30T09:41:28.290Z,101579.89
2018-09-30T09:46:23.719Z,101579.30
2018-09-30T09:51:15.010Z,101570.44
2018-09-30T09:56:07.004Z,101562.20
2018-09-30T10:00:59.903Z,101551.38
2018-09-30T10:05:51.798Z,101539.11
2018-09-30T10:10:42.967Z,101536.37
2018-09-30T10:15:33.347Z,101530.95
2018-09-30T10:20:26.634Z,101524.56
2018-09-30T10:25:17.629Z,101529.31
2018-09-30T10:30:12.128Z,101510.26
2018-09-30T10:35:00.078Z,101487.49
2018-09-30T10:39:51.953Z,101485.31
2018-09-30T10:44:43.480Z,101472.48
2018-09-30T10:49:35.071Z,101471.16
2018-09-30T10:54:26.766Z,101464.25
2018-09-30T10:59:17.994Z,101461.05
2018-09-30T11:04:12.420Z,101451.44
2018-09-30T11:09:06.724Z,101441.66
2018-09-30T11:13:58.116Z,101438.89
2018-09-30T11:18:50.066Z,101425.44
2018-09-30T11:23:42.307Z,101417.06
2018-09-30T11:28:40.080Z,101409.09
2018-09-30T11:33:32.034Z,101406.32
2018-09-30T11:38:25.226Z,101404.03
2018-09-30T11:43:19.103Z,101393.66
2018-09-30T11:48:11.778Z,101388.65
2018-09-30T11:53:06.741Z,101381.61
2018-09-30T11:58:01.029Z,101371.08
2018-09-30T12:02:52.173Z,101371.77
2018-09-30T12:07:44.265Z,101362.28
2018-09-30T12:12:36.718Z,101352.71
2018-09-30T12:17:31.280Z,101336.00
2018-09-30T12:22:24.677Z,101329.03
2018-09-30T12:27:26.398Z,101316.56
2018-09-30T12:32:18.798Z,101301.55
2018-09-30T12:37:10.611Z,101297.77
2018-09-30T12:42:03.376Z,101294.58
2018-09-30T12:46:55.040Z,101284.28
2018-09-30T12:51:47.729Z,101282.53
2018-09-30T12:56:41.877Z,101277.42
2018-09-30T13:01:33.054Z,101269.41
2018-09-30T13:06:27.327Z,101275.22
2018-09-30T13:11:19.157Z,101261.39
2018-09-30T13:16:11.293Z,101259.63
2018-09-30T13:21:05.890Z,101257.47
2018-09-30T13:25:58.892Z,101255.27
2018-09-30T13:30:58.601Z,101256.44
2018-09-30T13:35:50.715Z,101249.22
2018-09-30T13:40:43.410Z,101251.88
2018-09-30T13:45:34.735Z,101262.11
2018-09-30T13:50:26.698Z,101258.17
2018-09-30T13:55:20.193Z,101259.22
2018-09-30T14:00:13.893Z,101261.56
2018-09-30T14:05:05.813Z,101258.59
2018-09-30T14:09:58.480Z,101238.09
2018-09-30T14:14:52.721Z,101236.06
2018-09-30T14:19:46.605Z,101228.44
2018-09-30T14:24:47.564Z,101232.08
2018-09-30T14:29:39.348Z,101216.56
2018-09-30T14:34:41.440Z,101221.77
2018-09-30T14:39:35.906Z,101218.92
2018-09-30T14:44:25.879Z,101215.56
2018-09-30T14:49:17.169Z,101215.75
2018-09-30T14:54:09.979Z,101214.27
2018-09-30T14:58:59.154Z,101218.30
2018-09-30T15:03:50.170Z,101211.23
2018-09-30T15:08:41.922Z,101211.70
2018-09-30T15:13:33.387Z,101209.80
2018-09-30T15:18:33.369Z,101207.42
2018-09-30T15:23:23.588Z,101199.94
2018-09-30T15:28:15.312Z,101200.33
2018-09-30T15:33:07.116Z,101194.73
2018-09-30T15:37:58.942Z,101194.12
2018-09-30T15:42:50.417Z,101188.78
2018-09-30T15:47:44.297Z,101192.52
2018-09-30T15:52:34.863Z,101196.88
2018-09-30T15:57:29.689Z,101201.99
2018-09-30T15:58:54.564Z,101197.33
2018-09-30T16:03:48.756Z,101198.54
2018-09-30T16:08:43.487Z,101196.80
2018-09-30T16:13:33.505Z,101204.95
2018-09-30T16:18:24.686Z,101203.08
2018-09-30T16:23:16.487Z,101211.30
2018-09-30T16:28:11.519Z,101217.29
2018-09-30T16:33:07.308Z,101208.53
2018-09-30T16:37:58.032Z,101214.98
2018-09-30T16:42:49.357Z,101213.76
2018-09-30T16:47:44.591Z,101216.52
2018-09-30T16:52:37.546Z,101215.86
2018-09-30T16:57:30.823Z,101219.49
2018-09-30T17:02:22.189Z,101225.36
2018-09-30T17:07:17.058Z,101226.66
2018-09-30T17:12:08.182Z,101230.35
2018-09-30T17:17:05.067Z,101229.17
